Terminal Aerodrome Forecast
Issued by NWS Bismarck, ND

Home | Current Version | Previous Version | Graphics & Text | Print | Product List | Glossary On
Versions: 1 2 3 4 5 6 7 8 9 10 11 12 13 14 15 16 17 18 19 20 21 22 23 24 25
000
FTUS43 KBIS 230100 AAA
TAFISN
TAF AMD
KISN 230138Z 2302/2324 VRB05KT P6SM SCT060
     FM231500 14015KT P6SM SCT060=

USA.gov is the U.S. government's official web portal to all federal, state and local government web resources and services.